createdAt,value
2019-03-27T00:00:43.803Z,999.04
2019-03-27T00:01:43.796Z,998.98
2019-03-27T00:02:43.782Z,999.10
2019-03-27T00:03:43.769Z,998.96
2019-03-27T00:04:43.763Z,999.08
2019-03-27T00:05:43.746Z,999.04
2019-03-27T00:06:43.735Z,999.20
2019-03-27T00:07:43.724Z,999.06
2019-03-27T00:08:43.719Z,999.19
2019-03-27T00:09:43.702Z,999.31
2019-03-27T00:10:43.694Z,999.17
2019-03-27T00:11:43.680Z,999.21
2019-03-27T00:12:43.671Z,999.18
2019-03-27T00:13:43.674Z,999.24
2019-03-27T00:14:43.651Z,999.24
2019-03-27T00:15:43.639Z,999.10
2019-03-27T00:16:43.628Z,999.30
2019-03-27T00:17:43.614Z,999.29
2019-03-27T00:18:43.609Z,999.30
2019-03-27T00:19:43.599Z,999.35
2019-03-27T00:20:43.582Z,999.23
2019-03-27T00:21:43.571Z,999.30
2019-03-27T00:22:43.559Z,999.41
2019-03-27T00:23:43.567Z,999.23
2019-03-27T00:24:43.537Z,999.10
2019-03-27T00:25:43.526Z,999.37
2019-03-27T00:26:43.520Z,999.35
2019-03-27T00:27:43.507Z,999.31
2019-03-27T00:28:43.492Z,999.30
2019-03-27T00:29:43.480Z,999.40
2019-03-27T00:30:43.471Z,999.63
2019-03-27T00:31:43.462Z,999.53
2019-03-27T00:32:43.449Z,999.50
2019-03-27T00:33:43.437Z,999.54
2019-03-27T00:34:43.427Z,999.50
2019-03-27T00:35:43.418Z,999.49
2019-03-27T00:36:43.407Z,999.62
2019-03-27T00:37:43.398Z,999.60
2019-03-27T00:38:43.385Z,999.44
2019-03-27T00:39:43.376Z,999.48
2019-03-27T00:40:43.363Z,999.50
2019-03-27T00:41:43.352Z,999.44
2019-03-27T00:42:43.340Z,999.50
2019-03-27T00:43:43.331Z,999.59
2019-03-27T00:44:43.321Z,999.41
2019-03-27T00:45:43.314Z,999.61
2019-03-27T00:46:43.300Z,999.61
2019-03-27T00:47:43.289Z,999.58
2019-03-27T00:48:43.275Z,999.57
2019-03-27T00:49:43.284Z,999.71
2019-03-27T00:50:43.251Z,999.57
2019-03-27T00:51:43.243Z,999.64
2019-03-27T00:52:43.230Z,999.56
2019-03-27T00:53:43.220Z,999.66
2019-03-27T00:54:43.207Z,999.68
2019-03-27T00:55:43.201Z,999.54
2019-03-27T00:56:43.187Z,999.74
2019-03-27T00:57:43.173Z,999.58
2019-03-27T00:58:43.167Z,999.44
2019-03-27T00:59:43.153Z,999.40
2019-03-27T01:00:43.144Z,999.56
2019-03-27T01:01:43.137Z,999.54
2019-03-27T01:02:43.122Z,999.57
2019-03-27T01:03:43.110Z,999.35
2019-03-27T01:04:43.099Z,999.48
2019-03-27T01:05:43.093Z,999.40
2019-03-27T01:06:43.080Z,999.45
2019-03-27T01:07:43.068Z,999.62
2019-03-27T01:08:43.138Z,999.54
2019-03-27T01:09:43.051Z,999.51
2019-03-27T01:10:43.034Z,999.58
2019-03-27T01:11:43.023Z,999.42
2019-03-27T01:12:43.018Z,999.63
2019-03-27T01:13:43.007Z,999.52
2019-03-27T01:14:42.989Z,999.56
2019-03-27T01:15:42.981Z,999.57
2019-03-27T01:16:42.971Z,999.60
2019-03-27T01:17:42.958Z,999.64
2019-03-27T01:18:42.943Z,999.73
2019-03-27T01:19:42.934Z,999.52
2019-03-27T01:20:42.922Z,999.69
2019-03-27T01:21:42.912Z,999.69
2019-03-27T01:22:42.900Z,999.62
2019-03-27T01:23:42.892Z,999.72
2019-03-27T01:24:42.879Z,999.71
2019-03-27T01:25:42.867Z,999.80
2019-03-27T01:26:42.859Z,999.73
2019-03-27T01:27:42.850Z,999.79
2019-03-27T01:28:42.842Z,999.82
2019-03-27T01:29:42.823Z,999.85
2019-03-27T01:30:42.815Z,999.85
2019-03-27T01:31:42.801Z,999.86
2019-03-27T01:32:42.864Z,999.84
2019-03-27T01:33:42.784Z,999.81
2019-03-27T01:34:42.772Z,999.79
2019-03-27T01:35:42.766Z,999.92
2019-03-27T01:36:42.753Z,999.76
2019-03-27T01:37:42.741Z,999.83
2019-03-27T01:38:42.724Z,999.77
2019-03-27T01:39:42.720Z,999.68
2019-03-27T01:40:42.707Z,999.90
2019-03-27T01:41:42.694Z,999.75
2019-03-27T01:42:42.683Z,999.81
2019-03-27T01:43:42.670Z,999.85
2019-03-27T01:44:42.660Z,999.78
2019-03-27T01:45:52.507Z,999.80
2019-03-27T01:46:43.639Z,999.76
2019-03-27T01:47:42.634Z,999.77
2019-03-27T01:48:42.616Z,999.94
2019-03-27T01:49:42.606Z,999.94
2019-03-27T01:50:42.595Z,999.91
2019-03-27T01:51:42.583Z,1000.03
2019-03-27T01:52:42.573Z,999.93
2019-03-27T01:53:42.562Z,999.99
2019-03-27T01:54:42.548Z,999.82
2019-03-27T01:55:42.542Z,999.85
2019-03-27T01:56:42.527Z,999.90
2019-03-27T01:57:42.530Z,999.84
2019-03-27T01:58:42.514Z,999.80
2019-03-27T01:59:42.494Z,999.87
2019-03-27T02:00:42.490Z,999.87
2019-03-27T02:01:42.471Z,999.80
2019-03-27T02:02:42.466Z,999.79
2019-03-27T02:03:42.456Z,999.81
2019-03-27T02:04:42.441Z,999.97
2019-03-27T02:05:42.429Z,999.95
2019-03-27T02:06:42.428Z,999.92
2019-03-27T02:07:42.407Z,999.87
2019-03-27T02:08:42.396Z,999.88
2019-03-27T02:09:42.387Z,1000.01
2019-03-27T02:10:42.373Z,999.97
2019-03-27T02:11:42.362Z,999.97
2019-03-27T02:12:42.360Z,1000.00
2019-03-27T02:13:42.348Z,999.95
2019-03-27T02:14:42.333Z,999.96
2019-03-27T02:15:42.319Z,999.91
2019-03-27T02:16:42.308Z,999.84
2019-03-27T02:17:42.304Z,999.82
2019-03-27T02:18:42.283Z,999.76
2019-03-27T02:19:42.274Z,999.85
2019-03-27T02:20:42.264Z,999.87
2019-03-27T02:21:42.281Z,999.83
2019-03-27T02:22:42.245Z,999.89
2019-03-27T02:23:42.234Z,999.89
2019-03-27T02:24:42.222Z,999.90
2019-03-27T02:25:42.208Z,999.90
2019-03-27T02:26:42.199Z,1000.07
2019-03-27T02:27:42.187Z,1000.04
2019-03-27T02:28:42.176Z,1000.03
2019-03-27T02:29:42.165Z,1000.11
2019-03-27T02:30:42.156Z,1000.05
2019-03-27T02:31:42.151Z,1000.12
2019-03-27T02:32:42.175Z,1000.06
2019-03-27T02:33:42.122Z,1000.02
2019-03-27T02:34:42.119Z,1000.12
2019-03-27T02:35:42.102Z,1000.14
2019-03-27T02:36:42.090Z,1000.08
2019-03-27T02:37:42.084Z,1000.02
2019-03-27T02:38:42.071Z,1000.04
2019-03-27T02:39:42.058Z,1000.11
2019-03-27T02:40:42.044Z,1000.05
2019-03-27T02:41:42.036Z,999.99
2019-03-27T02:42:42.020Z,1000.03
2019-03-27T02:43:42.018Z,1000.01
2019-03-27T02:44:42.000Z,999.99
2019-03-27T02:45:41.987Z,999.95
2019-03-27T02:46:41.975Z,999.96
2019-03-27T02:47:41.968Z,999.88
2019-03-27T02:48:41.958Z,1000.02
2019-03-27T02:49:41.941Z,999.98
2019-03-27T02:50:41.934Z,1000.02
2019-03-27T02:51:41.930Z,1000.09
2019-03-27T02:52:41.910Z,1000.06
2019-03-27T02:53:41.902Z,1000.13
2019-03-27T02:54:41.890Z,1000.00
2019-03-27T02:55:41.877Z,1000.04
2019-03-27T02:56:41.864Z,1000.05
2019-03-27T02:57:41.855Z,1000.10
2019-03-27T02:58:41.849Z,1000.05
2019-03-27T02:59:41.918Z,1000.06
2019-03-27T03:00:41.822Z,1000.04
2019-03-27T03:01:41.813Z,999.88
2019-03-27T03:02:41.817Z,1000.07
2019-03-27T03:03:41.789Z,1000.04
2019-03-27T03:04:41.784Z,1000.00
2019-03-27T03:05:41.768Z,1000.14
2019-03-27T03:06:41.759Z,1000.04
2019-03-27T03:07:41.743Z,999.97
2019-03-27T03:08:41.735Z,999.97
2019-03-27T03:09:41.721Z,999.99
2019-03-27T03:10:45.230Z,999.98
2019-03-27T03:11:41.707Z,999.97
2019-03-27T03:12:41.688Z,1000.10
2019-03-27T03:13:41.679Z,1000.12
2019-03-27T03:14:41.670Z,1000.01
2019-03-27T03:15:41.657Z,1000.05
2019-03-27T03:16:43.306Z,1000.10
2019-03-27T03:17:41.636Z,1000.06
2019-03-27T03:18:41.624Z,999.92
2019-03-27T03:19:41.609Z,1000.16
2019-03-27T03:20:41.604Z,1000.23
2019-03-27T03:21:41.591Z,1000.12
2019-03-27T03:22:41.603Z,1000.07
2019-03-27T03:23:41.647Z,1000.17
2019-03-27T03:24:41.557Z,1000.18
2019-03-27T03:25:41.544Z,1000.13
2019-03-27T03:26:41.532Z,1000.12
2019-03-27T03:27:41.521Z,1000.16
2019-03-27T03:28:41.516Z,1000.05
2019-03-27T03:29:41.499Z,1000.08
2019-03-27T03:30:41.489Z,1000.07
2019-03-27T03:31:41.480Z,1000.12
2019-03-27T03:32:41.474Z,1000.06
2019-03-27T03:33:41.485Z,1000.07
2019-03-27T03:34:41.469Z,1000.13
2019-03-27T03:35:41.441Z,1000.07
2019-03-27T03:36:41.425Z,1000.12
2019-03-27T03:37:41.417Z,1000.09
2019-03-27T03:38:41.413Z,1000.17
2019-03-27T03:39:41.394Z,1000.17
2019-03-27T03:40:41.394Z,1000.06
2019-03-27T03:41:41.409Z,1000.08
2019-03-27T03:42:41.363Z,1000.13
2019-03-27T03:43:41.348Z,1000.00
2019-03-27T03:44:41.340Z,1000.19
2019-03-27T03:45:41.324Z,1000.11
2019-03-27T03:46:58.355Z,1000.17
2019-03-27T03:47:42.307Z,1000.19
2019-03-27T03:48:41.288Z,1000.26
2019-03-27T03:49:41.277Z,1000.18
2019-03-27T03:50:41.272Z,1000.16
2019-03-27T03:51:41.276Z,1000.16
2019-03-27T03:52:45.543Z,1000.20
2019-03-27T03:53:41.239Z,1000.21
2019-03-27T03:54:41.229Z,1000.27
2019-03-27T03:55:41.220Z,1000.26
2019-03-27T03:56:41.204Z,1000.12
2019-03-27T03:57:41.189Z,1000.14
2019-03-27T03:58:41.180Z,1000.11
2019-03-27T03:59:41.168Z,1000.14
2019-03-27T04:00:41.158Z,1000.12
2019-03-27T04:01:41.146Z,1000.17
2019-03-27T04:02:41.135Z,1000.28
2019-03-27T04:03:41.136Z,1000.23
2019-03-27T04:04:41.123Z,1000.29
2019-03-27T04:05:41.105Z,1000.31
2019-03-27T04:06:41.089Z,1000.26
2019-03-27T04:07:41.079Z,1000.35
2019-03-27T04:08:41.066Z,1000.42
2019-03-27T04:09:41.054Z,1000.36
2019-03-27T04:10:41.056Z,1000.34
2019-03-27T04:11:41.116Z,1000.33
2019-03-27T04:12:41.027Z,1000.34
2019-03-27T04:13:41.080Z,1000.43
2019-03-27T04:14:40.998Z,1000.34
2019-03-27T04:15:41.010Z,1000.36
2019-03-27T04:16:40.976Z,1000.34
2019-03-27T04:17:40.964Z,1000.43
2019-03-27T04:18:40.952Z,1000.42
2019-03-27T04:19:40.947Z,1000.42
2019-03-27T04:20:40.932Z,1000.46
2019-03-27T04:21:40.921Z,1000.48
2019-03-27T04:22:40.911Z,1000.37
2019-03-27T04:23:40.900Z,1000.44
2019-03-27T04:24:40.888Z,1000.50
2019-03-27T04:26:07.217Z,1000.46
2019-03-27T04:26:41.862Z,1000.44
2019-03-27T04:27:40.862Z,1000.48
2019-03-27T04:28:40.845Z,1000.50
2019-03-27T04:29:40.833Z,1000.52
2019-03-27T04:30:40.827Z,1000.47
2019-03-27T04:31:40.807Z,1000.45
2019-03-27T04:32:40.793Z,1000.45
2019-03-27T04:33:40.800Z,1000.43
2019-03-27T04:34:40.781Z,1000.54
2019-03-27T04:35:40.762Z,1000.45
2019-03-27T04:36:40.755Z,1000.46
2019-03-27T04:37:40.742Z,1000.41
2019-03-27T04:38:40.730Z,1000.46
2019-03-27T04:39:40.721Z,1000.46
2019-03-27T04:40:40.719Z,1000.52
2019-03-27T04:41:40.701Z,1000.45
2019-03-27T04:42:40.693Z,1000.44
2019-03-27T04:43:40.682Z,1000.39
2019-03-27T04:44:40.661Z,1000.25
2019-03-27T04:45:40.654Z,1000.31
2019-03-27T04:46:40.642Z,1000.40
2019-03-27T04:47:40.639Z,1000.37
2019-03-27T04:48:40.618Z,1000.40
2019-03-27T04:49:40.603Z,1000.35
2019-03-27T04:50:40.598Z,1000.44
2019-03-27T04:51:40.584Z,1000.27
2019-03-27T04:52:40.571Z,1000.31
2019-03-27T04:53:40.561Z,1000.23
2019-03-27T04:54:40.551Z,1000.22
2019-03-27T04:55:40.539Z,1000.34
2019-03-27T04:56:40.527Z,1000.23
2019-03-27T04:57:40.520Z,1000.35
2019-03-27T04:58:40.508Z,1000.23
2019-03-27T04:59:40.502Z,1000.34
2019-03-27T05:00:40.487Z,1000.17
2019-03-27T05:01:40.469Z,1000.29
2019-03-27T05:02:40.466Z,1000.20
2019-03-27T05:03:40.471Z,1000.36
2019-03-27T05:04:40.450Z,1000.29
2019-03-27T05:05:40.431Z,1000.33
2019-03-27T05:06:40.430Z,1000.31
2019-03-27T05:07:40.405Z,1000.33
2019-03-27T05:08:40.395Z,1000.29
2019-03-27T05:09:40.383Z,1000.34
2019-03-27T05:10:40.374Z,1000.13
2019-03-27T05:11:40.365Z,1000.24
2019-03-27T05:12:40.369Z,1000.20
2019-03-27T05:13:40.342Z,1000.21
2019-03-27T05:14:40.331Z,1000.26
2019-03-27T05:15:40.314Z,1000.11
2019-03-27T05:16:40.318Z,1000.14
2019-03-27T05:17:46.351Z,1000.19
2019-03-27T05:18:41.302Z,1000.19
2019-03-27T05:19:40.311Z,1000.22
2019-03-27T05:20:40.268Z,1000.25
2019-03-27T05:21:40.254Z,1000.21
2019-03-27T05:22:40.235Z,1000.23
2019-03-27T05:23:40.224Z,1000.27
2019-03-27T05:24:40.212Z,1000.27
2019-03-27T05:25:40.203Z,1000.24
2019-03-27T05:26:40.192Z,1000.39
2019-03-27T05:27:40.185Z,1000.22
2019-03-27T05:28:40.167Z,1000.20
2019-03-27T05:29:40.164Z,1000.34
2019-03-27T05:30:40.155Z,1000.49
2019-03-27T05:31:40.131Z,1000.34
2019-03-27T05:32:40.121Z,1000.37
2019-03-27T05:33:40.112Z,1000.48
2019-03-27T05:34:40.108Z,1000.36
2019-03-27T05:35:40.089Z,1000.38
2019-03-27T05:36:40.080Z,1000.22
2019-03-27T05:37:40.070Z,1000.31
2019-03-27T05:38:40.057Z,1000.36
2019-03-27T05:39:40.062Z,1000.43
2019-03-27T05:40:40.037Z,1000.48
2019-03-27T05:41:40.024Z,1000.49
2019-03-27T05:42:40.014Z,1000.45
2019-03-27T05:43:40.015Z,1000.42
2019-03-27T05:44:39.993Z,1000.38
2019-03-27T05:45:39.982Z,1000.38
2019-03-27T05:46:39.973Z,1000.40
2019-03-27T05:47:39.974Z,1000.44
2019-03-27T05:48:39.953Z,1000.46
2019-03-27T05:49:39.958Z,1000.40
2019-03-27T05:50:39.924Z,1000.45
2019-03-27T05:51:39.916Z,1000.52
2019-03-27T05:52:39.906Z,1000.47
2019-03-27T05:53:39.898Z,1000.51
2019-03-27T05:54:39.881Z,1000.53
2019-03-27T05:55:39.874Z,1000.42
2019-03-27T05:56:39.861Z,1000.56
2019-03-27T05:57:39.851Z,1000.53
2019-03-27T05:58:39.833Z,1000.68
2019-03-27T05:59:39.831Z,1000.64
2019-03-27T06:00:39.819Z,1000.66
2019-03-27T06:01:39.803Z,1000.73
2019-03-27T06:02:39.793Z,1000.71
2019-03-27T06:03:39.780Z,1000.83
2019-03-27T06:04:39.769Z,1000.78
2019-03-27T06:05:39.764Z,1000.85
2019-03-27T06:06:39.750Z,1000.84
2019-03-27T06:07:39.918Z,1000.83
2019-03-27T06:08:39.783Z,1000.87
2019-03-27T06:09:39.740Z,1000.81
2019-03-27T06:10:39.802Z,1000.93
2019-03-27T06:11:39.724Z,1000.84
2019-03-27T06:12:39.716Z,1000.92
2019-03-27T06:13:39.825Z,1000.93
2019-03-27T06:14:39.751Z,1000.99
2019-03-27T06:15:39.792Z,1000.99
2019-03-27T06:16:39.691Z,1001.02
2019-03-27T06:17:39.710Z,1001.02
2019-03-27T06:18:39.736Z,1001.04
2019-03-27T06:19:39.682Z,1000.94
2019-03-27T06:20:39.609Z,1001.02
2019-03-27T06:21:40.251Z,1001.09
2019-03-27T06:22:39.780Z,1001.10
2019-03-27T06:23:39.794Z,1001.08
2019-03-27T06:24:39.571Z,1001.15
2019-03-27T06:25:39.544Z,1001.07
2019-03-27T06:26:39.620Z,1001.10
2019-03-27T06:27:39.516Z,1001.06
2019-03-27T06:28:39.527Z,1001.04
2019-03-27T06:29:39.522Z,1001.17
2019-03-27T06:30:39.488Z,1001.11
2019-03-27T06:31:39.471Z,1001.13
2019-03-27T06:32:39.456Z,1001.06
2019-03-27T06:33:39.445Z,1001.18
2019-03-27T06:34:39.434Z,1001.11
2019-03-27T06:35:39.429Z,1001.12
2019-03-27T06:36:39.414Z,1001.12
2019-03-27T06:37:39.409Z,1001.10
2019-03-27T06:38:39.400Z,1001.16
2019-03-27T06:39:39.386Z,1001.19
2019-03-27T06:40:39.799Z,1001.09
2019-03-27T06:41:39.361Z,1001.19
2019-03-27T06:42:39.352Z,1001.17
2019-03-27T06:43:39.336Z,1001.15
2019-03-27T06:44:39.342Z,1000.93
2019-03-27T06:45:39.319Z,1001.08
2019-03-27T06:46:39.313Z,1001.13
2019-03-27T06:47:39.296Z,1001.09
2019-03-27T06:48:39.279Z,1001.10
2019-03-27T06:49:39.271Z,1001.15
2019-03-27T06:50:39.261Z,1001.16
2019-03-27T06:51:40.470Z,1001.23
2019-03-27T06:52:39.247Z,1001.15
2019-03-27T06:53:39.225Z,1001.25
2019-03-27T06:54:39.236Z,1001.14
2019-03-27T06:55:39.200Z,1001.12
2019-03-27T06:56:39.192Z,1001.14
2019-03-27T06:57:39.186Z,1001.15
2019-03-27T06:58:39.171Z,1001.12
2019-03-27T06:59:39.158Z,1001.17
2019-03-27T07:00:39.149Z,1001.04
2019-03-27T07:01:39.134Z,1001.08
2019-03-27T07:02:39.127Z,1001.06
2019-03-27T07:03:39.141Z,1001.16
2019-03-27T07:04:39.117Z,1001.13
2019-03-27T07:05:39.094Z,1001.25
2019-03-27T07:06:39.130Z,1001.14
2019-03-27T07:07:39.073Z,1001.14
2019-03-27T07:08:39.062Z,1001.15
2019-03-27T07:09:42.279Z,1001.30
2019-03-27T07:10:39.041Z,1001.26
2019-03-27T07:11:39.040Z,1001.09
2019-03-27T07:12:39.014Z,1001.21
2019-03-27T07:13:39.011Z,1001.30
2019-03-27T07:14:38.996Z,1001.25
2019-03-27T07:15:38.987Z,1001.29
2019-03-27T07:16:38.976Z,1001.26
2019-03-27T07:17:38.990Z,1001.39
2019-03-27T07:18:40.417Z,1001.47
2019-03-27T07:19:38.939Z,1001.44
2019-03-27T07:20:41.060Z,1001.44
2019-03-27T07:21:38.926Z,1001.48
2019-03-27T07:22:38.909Z,1001.42
2019-03-27T07:23:38.918Z,1001.41
2019-03-27T07:24:38.887Z,1001.34
2019-03-27T07:25:38.871Z,1001.38
2019-03-27T07:26:38.887Z,1001.36
2019-03-27T07:27:38.876Z,1001.39
2019-03-27T07:28:38.839Z,1001.49
2019-03-27T07:29:38.823Z,1001.46
2019-03-27T07:30:38.823Z,1001.44
2019-03-27T07:31:38.804Z,1001.41
2019-03-27T07:32:38.844Z,1001.26
2019-03-27T07:33:38.782Z,1001.40
2019-03-27T07:34:39.099Z,1001.46
2019-03-27T07:35:38.779Z,1001.36
2019-03-27T07:36:38.770Z,1001.39
2019-03-27T07:37:38.739Z,1001.30
2019-03-27T07:38:38.751Z,1001.46
2019-03-27T07:39:38.717Z,1001.45
2019-03-27T07:40:38.706Z,1001.48
2019-03-27T07:41:38.746Z,1001.52
2019-03-27T07:42:38.680Z,1001.39
2019-03-27T07:43:38.673Z,1001.42
2019-03-27T07:44:38.659Z,1001.55
2019-03-27T07:45:38.651Z,1001.42
2019-03-27T07:46:38.650Z,1001.47
2019-03-27T07:47:38.624Z,1001.44
2019-03-27T07:48:38.712Z,1001.32
2019-03-27T07:49:38.636Z,1001.59
2019-03-27T07:50:38.594Z,1001.29
2019-03-27T07:51:38.584Z,1001.40
2019-03-27T07:52:38.575Z,1001.47
2019-03-27T07:54:47.636Z,1001.50
2019-03-27T07:55:47.455Z,1001.43
2019-03-27T07:57:18.040Z,1001.39
2019-03-27T07:58:17.998Z,1001.39
2019-03-27T07:59:49.814Z,1001.55
2019-03-27T08:00:48.766Z,1001.41
2019-03-27T08:02:19.167Z,1001.47
2019-03-27T08:03:19.093Z,1001.56
2019-03-27T08:04:19.089Z,1001.45
2019-03-27T08:05:19.061Z,1001.56
2019-03-27T08:06:19.075Z,1001.46
2019-03-27T08:07:26.618Z,1001.47
2019-03-27T08:08:20.053Z,1001.56
2019-03-27T08:09:19.015Z,1001.52
2019-03-27T08:10:19.010Z,1001.61
2019-03-27T08:11:19.057Z,1001.57
2019-03-27T08:12:18.985Z,1001.61
2019-03-27T08:13:18.974Z,1001.56
2019-03-27T08:14:19.559Z,1001.49
2019-03-27T08:15:18.962Z,1001.60
2019-03-27T08:16:18.939Z,1001.58
2019-03-27T08:17:18.943Z,1001.61
2019-03-27T08:18:18.926Z,1001.59
2019-03-27T08:19:18.914Z,1001.60
2019-03-27T08:20:18.895Z,1001.53
2019-03-27T08:21:18.887Z,1001.65
2019-03-27T08:22:18.872Z,1001.65
2019-03-27T08:23:18.871Z,1001.62
2019-03-27T08:24:18.858Z,1001.72
2019-03-27T08:25:18.852Z,1001.70
2019-03-27T08:26:18.859Z,1001.62
2019-03-27T08:27:18.815Z,1001.61
2019-03-27T08:28:18.803Z,1001.72
2019-03-27T08:29:18.807Z,1001.74
2019-03-27T08:30:18.785Z,1001.79
2019-03-27T08:31:18.774Z,1001.65
2019-03-27T08:32:18.819Z,1001.81
2019-03-27T08:33:18.754Z,1001.84
2019-03-27T08:34:18.744Z,1001.89
2019-03-27T08:35:18.743Z,1002.00
2019-03-27T08:36:18.719Z,1002.02
2019-03-27T08:37:18.710Z,1001.87
2019-03-27T08:38:18.700Z,1002.04
2019-03-27T08:39:18.687Z,1001.86
2019-03-27T08:40:18.676Z,1001.85
2019-03-27T08:41:18.665Z,1001.89
2019-03-27T08:42:18.656Z,1002.00
2019-03-27T08:43:21.524Z,1002.01
2019-03-27T08:44:18.630Z,1002.14
2019-03-27T08:45:18.622Z,1002.14
2019-03-27T08:46:18.620Z,1002.20
2019-03-27T08:47:18.600Z,1002.40
2019-03-27T08:48:18.644Z,1002.20
2019-03-27T08:49:22.318Z,1002.21
2019-03-27T08:50:18.560Z,1002.24
2019-03-27T08:51:18.557Z,1002.21
2019-03-27T08:52:18.541Z,1002.20
2019-03-27T08:53:18.532Z,1002.13
2019-03-27T08:54:18.520Z,1002.23
2019-03-27T08:55:18.523Z,1002.28
2019-03-27T08:56:18.500Z,1002.33
2019-03-27T08:57:18.487Z,1002.28
2019-03-27T08:58:18.479Z,1002.37
2019-03-27T08:59:18.487Z,1002.31
2019-03-27T09:00:21.286Z,1002.27
2019-03-27T09:01:18.452Z,1002.50
2019-03-27T09:02:18.436Z,1002.42
2019-03-27T09:03:18.506Z,1002.36
2019-03-27T09:04:18.469Z,1002.51
2019-03-27T09:05:18.398Z,1002.57
2019-03-27T09:06:18.497Z,1002.55
2019-03-27T09:07:18.379Z,1002.67
2019-03-27T09:08:18.392Z,1002.63
2019-03-27T09:09:18.361Z,1002.64
2019-03-27T09:10:18.349Z,1002.76
2019-03-27T09:11:18.338Z,1002.60
2019-03-27T09:12:18.331Z,1002.63
2019-03-27T09:13:18.415Z,1002.81
2019-03-27T09:14:18.313Z,1002.45
2019-03-27T09:15:18.399Z,1002.39
2019-03-27T09:16:18.392Z,1002.77
2019-03-27T09:17:18.270Z,1002.59
2019-03-27T09:18:18.361Z,1002.69
2019-03-27T09:19:18.443Z,1002.44
2019-03-27T09:20:18.298Z,1002.22
2019-03-27T09:21:18.281Z,1002.41
2019-03-27T09:22:18.248Z,1002.46
2019-03-27T09:23:18.248Z,1002.39
2019-03-27T09:24:18.234Z,1002.50
2019-03-27T09:25:18.221Z,1002.00
2019-03-27T09:26:18.201Z,1002.34
2019-03-27T09:27:18.198Z,1002.38
2019-03-27T09:28:18.298Z,1002.43
2019-03-27T09:29:18.193Z,1002.58
2019-03-27T09:30:18.140Z,1002.49
2019-03-27T09:31:18.158Z,1002.49
2019-03-27T09:32:18.120Z,1002.58
2019-03-27T09:33:18.093Z,1002.45
2019-03-27T09:34:18.088Z,1002.56
2019-03-27T09:35:18.080Z,1002.70
2019-03-27T09:36:18.069Z,1002.53
2019-03-27T09:37:18.051Z,1002.49
2019-03-27T09:38:18.051Z,1002.53
2019-03-27T09:39:18.038Z,1002.56
2019-03-27T09:40:18.058Z,1002.52
2019-03-27T09:41:21.249Z,1002.58
2019-03-27T09:42:18.005Z,1002.66
2019-03-27T09:43:17.997Z,1002.52
2019-03-27T09:44:17.977Z,1002.66
2019-03-27T09:45:18.050Z,1002.66
2019-03-27T09:46:17.993Z,1002.54
2019-03-27T09:47:17.953Z,1002.59
2019-03-27T09:48:18.027Z,1002.59
2019-03-27T09:49:17.928Z,1002.56
2019-03-27T09:50:17.915Z,1002.63
2019-03-27T09:51:17.903Z,1002.63
2019-03-27T09:52:17.899Z,1002.70
2019-03-27T09:53:17.886Z,1002.74
2019-03-27T09:54:17.870Z,1002.70
2019-03-27T09:55:17.862Z,1002.76
2019-03-27T09:56:19.338Z,1002.77
2019-03-27T09:57:17.834Z,1002.76
2019-03-27T09:58:17.840Z,1002.71
2019-03-27T09:59:17.824Z,1002.69
2019-03-27T10:00:17.805Z,1002.72
2019-03-27T10:01:17.804Z,1002.60
2019-03-27T10:02:17.784Z,1002.72
2019-03-27T10:03:17.768Z,1002.68
2019-03-27T10:04:17.761Z,1002.72
2019-03-27T10:05:17.749Z,1002.72
2019-03-27T10:06:17.736Z,1002.82
2019-03-27T10:07:17.748Z,1002.73
2019-03-27T10:08:17.714Z,1002.64
2019-03-27T10:09:17.703Z,1002.56
2019-03-27T10:10:17.697Z,1002.53
2019-03-27T10:11:17.684Z,1002.53
2019-03-27T10:12:17.672Z,1002.64
2019-03-27T10:13:17.658Z,1002.49
2019-03-27T10:14:17.658Z,1002.59
2019-03-27T10:15:17.642Z,1002.55
2019-03-27T10:16:17.631Z,1002.48
2019-03-27T10:17:17.614Z,1002.53
2019-03-27T10:18:17.628Z,1002.61
2019-03-27T10:19:17.613Z,1002.65
2019-03-27T10:20:17.692Z,1002.68
2019-03-27T10:21:17.589Z,1002.64
2019-03-27T10:22:17.562Z,1002.68
2019-03-27T10:23:17.551Z,1002.66
2019-03-27T10:24:17.567Z,1002.76
2019-03-27T10:25:17.532Z,1002.67
2019-03-27T10:26:17.535Z,1002.80
2019-03-27T10:27:17.526Z,1002.81
2019-03-27T10:28:17.506Z,1002.89
2019-03-27T10:29:17.517Z,1002.84
2019-03-27T10:30:17.475Z,1002.91
2019-03-27T10:31:17.471Z,1002.93
2019-03-27T10:32:17.454Z,1002.90
2019-03-27T10:33:17.452Z,1002.88
2019-03-27T10:34:17.429Z,1002.96
2019-03-27T10:35:17.421Z,1003.01
2019-03-27T10:36:17.434Z,1003.11
2019-03-27T10:37:17.404Z,1003.10
2019-03-27T10:38:17.465Z,1003.13
2019-03-27T10:39:17.389Z,1002.95
2019-03-27T10:40:17.377Z,1002.97
2019-03-27T10:41:17.502Z,1002.92
2019-03-27T10:42:17.355Z,1003.08
2019-03-27T10:43:17.368Z,1002.72
2019-03-27T10:44:17.660Z,1002.79
2019-03-27T10:45:17.316Z,1002.80
2019-03-27T10:46:17.304Z,1002.75
2019-03-27T10:47:17.316Z,1002.68
2019-03-27T10:48:17.281Z,1002.68
2019-03-27T10:49:17.271Z,1002.76
2019-03-27T10:50:18.163Z,1002.79
2019-03-27T10:51:17.403Z,1002.75
2019-03-27T10:52:17.252Z,1002.71
2019-03-27T10:53:17.226Z,1002.73
2019-03-27T10:54:17.217Z,1002.64
2019-03-27T10:55:17.210Z,1002.66
2019-03-27T10:56:17.257Z,1002.78
2019-03-27T10:57:17.260Z,1002.82
2019-03-27T10:58:17.194Z,1002.88
2019-03-27T10:59:17.271Z,1002.82
2019-03-27T11:00:17.297Z,1002.86
2019-03-27T11:01:17.159Z,1002.95
2019-03-27T11:02:17.154Z,1002.99
2019-03-27T11:03:17.121Z,1002.93
2019-03-27T11:04:17.107Z,1003.09
2019-03-27T11:05:17.106Z,1003.09
2019-03-27T11:06:17.093Z,1003.18
2019-03-27T11:07:17.074Z,1003.14
2019-03-27T11:08:17.065Z,1003.08
2019-03-27T11:09:17.080Z,1003.18
2019-03-27T11:10:17.058Z,1003.20
2019-03-27T11:11:17.038Z,1003.07
2019-03-27T11:12:17.026Z,1003.13
2019-03-27T11:13:17.020Z,1003.20
2019-03-27T11:14:17.061Z,1003.33
2019-03-27T11:15:16.990Z,1003.00
2019-03-27T11:16:16.990Z,1003.10
2019-03-27T11:17:17.179Z,1002.95
2019-03-27T11:18:16.960Z,1003.16
2019-03-27T11:19:17.008Z,1003.11
2019-03-27T11:20:29.947Z,1002.98
2019-03-27T11:21:17.927Z,1003.12
2019-03-27T11:22:16.948Z,1003.10
2019-03-27T11:23:16.956Z,1002.79
2019-03-27T11:24:16.900Z,1003.01
2019-03-27T11:25:16.889Z,1003.01
2019-03-27T11:26:16.882Z,1002.99
2019-03-27T11:27:16.914Z,1002.97
2019-03-27T11:28:16.904Z,1003.06
2019-03-27T11:29:16.856Z,1003.01
2019-03-27T11:30:16.853Z,1003.27
2019-03-27T11:31:16.827Z,1003.03
2019-03-27T11:32:16.814Z,1003.02
2019-03-27T11:33:16.894Z,1002.95
2019-03-27T11:34:16.834Z,1003.36
2019-03-27T11:35:16.779Z,1003.16
2019-03-27T11:36:16.774Z,1003.40
2019-03-27T11:37:16.762Z,1003.14
2019-03-27T11:38:16.956Z,1003.02
2019-03-27T11:39:16.750Z,1003.07
2019-03-27T11:40:16.725Z,1003.08
2019-03-27T11:41:16.767Z,1003.11
2019-03-27T11:42:16.713Z,1003.04
2019-03-27T11:43:16.730Z,1003.33
2019-03-27T11:44:16.735Z,1003.14
2019-03-27T11:45:16.677Z,1003.29
2019-03-27T11:46:16.666Z,1003.28
2019-03-27T11:47:16.681Z,1003.21
2019-03-27T11:48:16.725Z,1003.07
2019-03-27T11:49:16.817Z,1003.29
2019-03-27T11:50:16.789Z,1003.00
2019-03-27T11:51:16.636Z,1003.10
2019-03-27T11:52:16.609Z,1003.01
2019-03-27T11:53:16.628Z,1003.18
2019-03-27T11:54:16.632Z,1003.13
2019-03-27T11:55:16.577Z,1002.87
2019-03-27T11:56:16.628Z,1003.17
2019-03-27T11:57:16.568Z,1003.12
2019-03-27T11:58:16.740Z,1003.13
2019-03-27T11:59:16.610Z,1002.85
2019-03-27T12:00:16.541Z,1002.96
2019-03-27T12:01:16.519Z,1003.06
2019-03-27T12:02:16.704Z,1002.99
2019-03-27T12:03:16.490Z,1002.82
2019-03-27T12:04:16.482Z,1002.94
2019-03-27T12:05:16.495Z,1002.97
2019-03-27T12:06:16.495Z,1003.05
2019-03-27T12:07:16.457Z,1003.05
2019-03-27T12:08:16.500Z,1003.01
2019-03-27T12:09:16.426Z,1002.90
2019-03-27T12:10:16.420Z,1002.79
2019-03-27T12:11:16.405Z,1003.00
2019-03-27T12:12:16.394Z,1002.63
2019-03-27T12:13:16.407Z,1002.91